Time;durP1;ratioP1;P1;durP2;ratioP2;P2;SDS_P1;SDS_P2;PMS_P1;PMS_P2;Temp;Humidity;BMP_temperature;BMP_pressure;BME280_temperature;BME280_humidity;BME280_pressure;Samples;Min_cycle;Max_cycle;Signal;HPM_P1;HPM_P2
2023/05/21 00:01:42;;;;;;;28.77;21.13;;;19.20;43.40;;;;;;4993307;28;20418;-54
2023/05/21 00:04:07;;;;;;;25.10;20.73;;;19.10;43.60;;;;;;4949494;28;1273204;-55
2023/05/21 00:06:36;;;;;;;26.43;22.63;;;19.00;43.80;;;;;;4994732;28;20174;-54
2023/05/21 00:09:03;;;;;;;24.83;22.05;;;19.00;44.00;;;;;;4994307;28;20454;-52
2023/05/21 00:11:29;;;;;;;24.33;19.92;;;19.00;44.10;;;;;;4994120;28;20198;-54
2023/05/21 00:13:55;;;;;;;26.73;22.03;;;19.00;43.90;;;;;;4994149;28;20175;-52
2023/05/21 00:16:21;;;;;;;24.83;21.43;;;19.00;43.90;;;;;;4994241;28;20440;-51
2023/05/21 00:18:50;;;;;;;26.42;21.83;;;19.10;43.70;;;;;;4994116;28;20908;-54
2023/05/21 00:21:16;;;;;;;24.77;21.42;;;19.10;43.60;;;;;;4994253;28;20215;-52
2023/05/21 00:23:46;;;;;;;23.75;21.17;;;19.10;43.60;;;;;;4994043;28;20510;-52
2023/05/21 00:26:12;;;;;;;24.63;20.52;;;19.10;44.50;;;;;;4993764;28;20199;-55
2023/05/21 00:28:38;;;;;;;24.80;22.23;;;19.10;43.70;;;;;;4993951;28;20167;-51
2023/05/21 00:31:05;;;;;;;27.27;23.33;;;19.10;43.70;;;;;;4992946;28;20569;-54
2023/05/21 00:33:30;;;;;;;28.40;22.25;;;19.00;43.70;;;;;;4994017;28;20175;-55
2023/05/21 00:35:56;;;;;;;23.50;20.97;;;19.00;43.60;;;;;;4993863;28;20744;-52
2023/05/21 00:38:22;;;;;;;27.70;22.47;;;19.00;43.90;;;;;;4993719;28;20653;-54
2023/05/21 00:40:49;;;;;;;25.77;22.48;;;18.80;44.30;;;;;;4993413;28;20545;-54
2023/05/21 00:43:15;;;;;;;25.17;22.48;;;18.80;44.40;;;;;;4993629;28;20182;-54
2023/05/21 00:45:46;;;;;;;24.17;21.07;;;18.80;44.40;;;;;;4993493;28;20191;-54
2023/05/21 00:48:13;;;;;;;21.98;19.48;;;18.70;44.50;;;;;;4993590;28;20421;-53
2023/05/21 00:50:40;;;;;;;28.25;21.33;;;18.80;44.30;;;;;;4993549;28;20211;-54
2023/05/21 00:53:09;;;;;;;23.88;21.42;;;18.80;44.30;;;;;;4993512;28;20195;-54
2023/05/21 00:55:36;;;;;;;24.38;21.30;;;18.80;44.10;;;;;;4993224;28;20704;-53
2023/05/21 00:58:03;;;;;;;24.95;21.60;;;18.70;44.30;;;;;;4993403;28;20183;-54
2023/05/21 01:00:32;;;;;;;23.75;20.85;;;18.70;44.70;;;;;;4993434;28;20180;-54
2023/05/21 01:02:58;;;;;;;24.92;22.25;;;18.70;44.50;;;;;;4993667;28;20537;-54
2023/05/21 01:05:24;;;;;;;26.47;23.13;;;18.60;44.30;;;;;;4993121;28;20293;-54
2023/05/21 01:07:50;;;;;;;23.50;21.10;;;18.60;44.40;;;;;;4993247;28;20422;-54
2023/05/21 01:10:16;;;;;;;29.20;23.27;;;18.50;44.60;;;;;;4992828;28;20490;-54
2023/05/21 01:12:43;;;;;;;29.17;23.85;;;18.50;44.80;;;;;;4993114;28;20410;-54
2023/05/21 01:15:10;;;;;;;26.25;22.63;;;18.40;45.10;;;;;;4993033;28;20621;-54
2023/05/21 01:17:37;;;;;;;25.90;22.92;;;18.40;45.20;;;;;;4993415;28;20177;-54
2023/05/21 01:20:10;;;;;;;27.48;23.88;;;18.40;45.30;;;;;;4992846;28;20183;-54
2023/05/21 01:22:48;;;;;;;29.67;23.67;;;18.30;45.40;;;;;;4993130;28;20175;-54
2023/05/21 01:25:13;;;;;;;24.05;21.23;;;18.30;45.30;;;;;;4993165;28;20198;-54
2023/05/21 01:27:39;;;;;;;29.40;22.90;;;18.40;45.10;;;;;;4993062;28;20522;-54
2023/05/21 01:30:07;;;;;;;25.27;22.30;;;18.40;44.80;;;;;;4992770;28;20727;-52
2023/05/21 01:32:41;;;;;;;26.90;23.20;;;18.50;44.70;;;;;;4993163;28;20676;-54
2023/05/21 01:35:41;;;;;;;25.38;21.90;;;18.50;44.60;;;;;;4993085;28;20202;-54
2023/05/21 01:38:22;;;;;;;24.58;22.05;;;18.50;44.40;;;;;;4990019;28;20190;-54
2023/05/21 01:40:57;;;;;;;26.10;22.65;;;18.50;44.40;;;;;;4992771;28;20168;-52
2023/05/21 01:43:26;;;;;;;25.80;22.48;;;18.50;44.30;;;;;;4993062;28;20179;-54
2023/05/21 01:45:55;;;;;;;25.40;22.17;;;18.50;44.50;;;;;;4992642;28;20208;-52
2023/05/21 01:48:24;;;;;;;26.98;23.98;;;18.50;44.60;;;;;;4992975;28;20175;-54
2023/05/21 01:50:54;;;;;;;28.00;20.70;;;18.50;44.80;;;;;;4975054;28;20723;-51
2023/05/21 01:53:20;;;;;;;24.17;20.67;;;18.50;44.80;;;;;;4992743;28;20179;-52
2023/05/21 01:55:47;;;;;;;23.52;20.95;;;18.50;45.00;;;;;;4992454;28;20195;-54
2023/05/21 01:58:14;;;;;;;24.08;20.90;;;18.50;44.90;;;;;;4992617;28;20179;-52
2023/05/21 02:00:40;;;;;;;22.65;20.10;;;18.50;44.90;;;;;;4992455;28;20183;-52
2023/05/21 02:03:07;;;;;;;26.08;22.45;;;18.50;45.00;;;;;;4992873;28;20179;-54
2023/05/21 02:05:33;;;;;;;25.05;20.58;;;18.40;44.90;;;;;;4992383;28;20210;-54
2023/05/21 02:08:00;;;;;;;25.70;22.38;;;18.40;44.70;;;;;;4992872;28;20171;-52
2023/05/21 02:10:26;;;;;;;24.65;20.70;;;18.40;44.90;;;;;;4992300;28;20208;-54
2023/05/21 02:12:52;;;;;;;27.10;22.17;;;18.40;44.80;;;;;;4992510;28;20167;-54
2023/05/21 02:15:18;;;;;;;26.40;22.17;;;18.40;44.70;;;;;;4992461;28;20253;-51
2023/05/21 02:17:45;;;;;;;26.63;23.23;;;18.30;44.90;;;;;;4992649;28;20193;-53
2023/05/21 02:20:12;;;;;;;24.65;21.15;;;18.30;45.10;;;;;;4992386;28;20440;-53
2023/05/21 02:22:43;;;;;;;25.15;21.88;;;18.30;45.20;;;;;;4992395;28;20258;-51
2023/05/21 02:25:10;;;;;;;27.67;24.23;;;18.20;45.20;;;;;;4992585;28;20263;-53
2023/05/21 02:27:37;;;;;;;24.88;21.73;;;18.20;45.20;;;;;;4992132;28;20585;-53
2023/05/21 02:30:04;;;;;;;24.42;20.75;;;18.20;45.20;;;;;;4992295;28;20207;-51
2023/05/21 02:32:31;;;;;;;24.48;20.27;;;18.20;45.10;;;;;;4991564;28;20183;-52
2023/05/21 02:34:57;;;;;;;27.52;24.20;;;18.20;45.30;;;;;;4992168;28;20191;-52
2023/05/21 02:37:26;;;;;;;22.90;20.02;;;18.10;45.40;;;;;;4992205;28;20175;-53
2023/05/21 02:39:53;;;;;;;24.73;22.13;;;18.10;45.50;;;;;;4992212;28;20557;-53
2023/05/21 02:42:20;;;;;;;23.27;20.77;;;18.10;45.20;;;;;;4992392;28;20175;-53
2023/05/21 02:44:46;;;;;;;26.05;20.95;;;18.10;45.00;;;;;;4991963;28;20195;-53
2023/05/21 02:47:12;;;;;;;26.43;22.53;;;18.10;45.00;;;;;;4992167;28;20194;-53
2023/05/21 02:49:37;;;;;;;31.63;22.97;;;18.10;45.00;;;;;;4991790;28;20207;-53
2023/05/21 02:52:04;;;;;;;22.67;20.10;;;18.10;44.80;;;;;;4992174;28;20182;-53
2023/05/21 02:54:30;;;;;;;26.73;22.75;;;18.10;44.70;;;;;;4995085;28;20847;-53
2023/05/21 02:56:56;;;;;;;24.77;21.83;;;18.00;44.70;;;;;;4995764;28;20717;-53
2023/05/21 02:59:22;;;;;;;22.77;19.65;;;17.90;44.80;;;;;;4995364;28;20414;-53
2023/05/21 03:01:48;;;;;;;22.15;19.83;;;17.90;44.80;;;;;;4995533;28;20198;-52
2023/05/21 03:04:16;;;;;;;26.87;21.23;;;17.90;44.80;;;;;;4995402;28;20167;-52
2023/05/21 03:06:42;;;;;;;24.70;22.08;;;17.90;44.90;;;;;;4995560;28;20184;-53
2023/05/21 03:09:07;;;;;;;25.50;22.00;;;17.90;44.90;;;;;;4995306;28;20265;-55
2023/05/21 03:11:33;;;;;;;25.57;20.53;;;17.90;45.00;;;;;;4995590;28;20518;-52
2023/05/21 03:13:59;;;;;;;28.40;22.23;;;17.90;45.10;;;;;;4995701;28;20410;-52
2023/05/21 03:16:25;;;;;;;25.47;22.77;;;17.90;45.30;;;;;;4995192;28;20207;-54
2023/05/21 03:18:51;;;;;;;27.37;22.70;;;17.80;45.20;;;;;;4995141;28;20410;-52
2023/05/21 03:21:16;;;;;;;27.03;22.10;;;17.70;45.40;;;;;;4994988;28;20195;-52
2023/05/21 03:23:42;;;;;;;31.77;24.03;;;17.70;45.50;;;;;;4995193;28;20174;-53
2023/05/21 03:26:08;;;;;;;47.97;23.90;;;17.70;45.30;;;;;;4995179;28;20194;-52
2023/05/21 03:28:34;;;;;;;24.37;21.37;;;17.70;45.10;;;;;;4995352;28;20414;-54
2023/05/21 03:31:00;;;;;;;23.40;21.00;;;17.70;45.00;;;;;;4977525;28;20573;-54
2023/05/21 03:33:26;;;;;;;24.90;21.57;;;17.70;45.00;;;;;;4994985;28;20666;-51
2023/05/21 03:35:53;;;;;;;24.80;22.13;;;17.70;45.00;;;;;;4994847;28;20489;-54
2023/05/21 03:38:19;;;;;;;24.85;22.15;;;17.70;45.00;;;;;;4995052;28;20178;-54
2023/05/21 03:40:44;;;;;;;25.43;22.17;;;17.80;44.90;;;;;;4995022;28;20569;-51
2023/05/21 03:43:10;;;;;;;23.40;20.07;;;17.80;45.00;;;;;;4994933;28;20549;-51
2023/05/21 03:45:36;;;;;;;22.00;19.53;;;17.80;45.00;;;;;;4994808;28;20233;-54
2023/05/21 03:48:02;;;;;;;23.97;21.07;;;17.70;45.30;;;;;;4994927;28;20501;-54
2023/05/21 03:50:27;;;;;;;26.77;20.50;;;17.70;45.40;;;;;;4994482;28;20290;-50
2023/05/21 03:52:53;;;;;;;23.83;21.43;;;17.70;45.70;;;;;;4994608;28;20604;-53
2023/05/21 03:55:19;;;;;;;25.83;21.77;;;17.60;45.70;;;;;;4994841;28;20195;-50
2023/05/21 03:57:44;;;;;;;27.73;20.50;;;17.70;45.90;;;;;;4994725;28;20175;-51
2023/05/21 04:00:10;;;;;;;24.40;21.13;;;17.70;45.90;;;;;;4994553;28;20179;-51
2023/05/21 04:02:36;;;;;;;24.67;21.90;;;17.70;45.80;;;;;;4994490;28;20233;-51
2023/05/21 04:05:02;;;;;;;25.87;21.73;;;17.70;46.60;;;;;;4993284;28;20450;-52
2023/05/21 04:07:28;;;;;;;26.03;21.17;;;17.80;45.80;;;;;;4994368;28;20186;-51
2023/05/21 04:09:55;;;;;;;26.63;22.92;;;17.80;45.90;;;;;;4994319;28;20229;-50
2023/05/21 04:12:21;;;;;;;25.48;22.65;;;17.80;46.30;;;;;;4994453;28;20219;-53
2023/05/21 04:14:47;;;;;;;26.70;22.08;;;17.80;46.40;;;;;;4994238;28;20191;-53
2023/05/21 04:17:13;;;;;;;24.15;20.77;;;17.90;46.70;;;;;;4994437;28;20274;-50
2023/05/21 04:19:38;;;;;;;30.87;23.43;;;17.90;46.60;;;;;;4993888;28;20657;-53
2023/05/21 04:22:04;;;;;;;26.30;22.47;;;17.90;46.90;;;;;;4993986;28;20179;-51
2023/05/21 04:24:30;;;;;;;26.40;21.87;;;18.00;46.80;;;;;;4994021;28;20191;-54
2023/05/21 04:27:00;;;;;;;27.35;23.27;;;18.00;47.10;;;;;;4994237;28;20230;-53
2023/05/21 04:29:28;;;;;;;26.42;20.92;;;18.10;47.10;;;;;;4993910;28;20265;-51
2023/05/21 04:31:54;;;;;;;23.52;21.02;;;18.20;47.00;;;;;;4960706;28;20176;-53
2023/05/21 04:34:20;;;;;;;26.70;23.80;;;18.30;47.00;;;;;;4993721;28;20237;-53
2023/05/21 04:36:47;;;;;;;28.60;24.10;;;18.40;47.10;;;;;;4993982;28;20175;-52
2023/05/21 04:39:13;;;;;;;26.33;23.02;;;18.50;47.00;;;;;;4993749;28;20484;-55
2023/05/21 04:41:39;;;;;;;24.45;21.77;;;18.60;46.90;;;;;;4993959;28;20180;-54
2023/05/21 04:44:08;;;;;;;26.57;20.70;;;18.70;46.90;;;;;;4993743;28;20242;-51
2023/05/21 04:46:34;;;;;;;29.27;24.75;;;18.80;46.70;;;;;;4993863;28;20414;-51
2023/05/21 04:49:01;;;;;;;26.40;22.65;;;18.90;46.40;;;;;;4993353;28;20262;-51
2023/05/21 04:51:28;;;;;;;26.33;22.50;;;19.00;46.50;;;;;;4993736;28;20182;-52
2023/05/21 04:53:54;;;;;;;24.80;21.52;;;19.10;46.60;;;;;;4993703;28;20172;-54
2023/05/21 04:56:25;;;;;;;25.15;22.45;;;19.20;46.50;;;;;;4993484;28;20203;-51
2023/05/21 04:58:52;;;;;;;26.75;22.05;;;19.30;46.30;;;;;;4993499;28;20175;-52
2023/05/21 05:01:21;;;;;;;25.98;23.13;;;19.40;46.00;;;;;;4993233;28;20182;-54
2023/05/21 05:03:47;;;;;;;28.00;23.50;;;19.60;45.90;;;;;;4993190;28;20538;-52
2023/05/21 05:06:13;;;;;;;24.23;20.98;;;19.70;46.00;;;;;;4993186;28;20206;-53
2023/05/21 05:08:39;;;;;;;24.60;21.57;;;19.80;46.00;;;;;;4993414;28;20183;-51
2023/05/21 05:11:05;;;;;;;26.08;23.17;;;20.00;45.60;;;;;;4993011;28;20716;-54
2023/05/21 05:13:30;;;;;;;24.37;21.87;;;20.10;45.30;;;;;;4993185;28;20211;-52
2023/05/21 05:15:56;;;;;;;24.60;22.00;;;20.20;45.30;;;;;;4992675;28;20233;-51
2023/05/21 05:18:22;;;;;;;23.60;20.30;;;20.40;45.60;;;;;;4992947;28;20537;-54
2023/05/21 05:20:48;;;;;;;23.83;21.17;;;20.50;45.40;;;;;;4993044;28;20183;-54
2023/05/21 05:23:14;;;;;;;25.10;22.00;;;20.70;45.20;;;;;;4993029;28;20186;-51
2023/05/21 05:25:39;;;;;;;23.70;21.13;;;20.90;44.90;;;;;;4992805;28;20203;-53
2023/05/21 05:28:05;;;;;;;24.73;22.10;;;20.90;44.80;;;;;;4993032;28;20215;-51
2023/05/21 05:30:31;;;;;;;24.67;21.73;;;21.10;44.60;;;;;;4992633;28;20298;-51
2023/05/21 05:32:57;;;;;;;22.63;19.90;;;21.20;44.50;;;;;;4993277;28;20529;-53
2023/05/21 05:35:22;;;;;;;25.23;20.10;;;21.40;44.40;;;;;;4992971;28;20601;-51
2023/05/21 05:37:48;;;;;;;23.03;20.53;;;21.50;43.70;;;;;;4992676;28;20715;-51
2023/05/21 05:40:14;;;;;;;20.57;18.37;;;21.60;43.70;;;;;;4992822;28;20206;-53
2023/05/21 05:42:40;;;;;;;22.73;19.97;;;21.60;43.30;;;;;;4992716;28;20181;-51
2023/05/21 05:45:06;;;;;;;23.63;20.90;;;21.70;43.40;;;;;;4992668;28;20422;-51
2023/05/21 05:47:31;;;;;;;24.23;21.20;;;21.80;43.80;;;;;;4992791;28;20187;-54
2023/05/21 05:49:57;;;;;;;21.57;19.27;;;22.00;43.90;;;;;;4992575;28;20454;-52
2023/05/21 05:52:23;;;;;;;20.60;17.87;;;22.10;43.50;;;;;;4992620;28;20669;-52
2023/05/21 05:54:49;;;;;;;21.13;18.93;;;22.30;43.30;;;;;;4992564;28;20272;-54
2023/05/21 05:57:14;;;;;;;22.70;20.30;;;22.40;43.30;;;;;;4992837;28;20590;-54
2023/05/21 05:59:40;;;;;;;23.83;21.30;;;22.60;43.00;;;;;;4992388;28;20703;-51
2023/05/21 06:02:06;;;;;;;20.93;18.90;;;22.70;43.00;;;;;;4992517;28;20218;-51
2023/05/21 06:04:31;;;;;;;22.10;19.90;;;22.80;42.20;;;;;;4992417;28;20206;-54
2023/05/21 06:06:58;;;;;;;22.27;19.87;;;23.00;42.10;;;;;;4992674;28;20675;-52
2023/05/21 06:09:24;;;;;;;21.00;18.80;;;23.10;42.30;;;;;;4992486;28;20203;-51
2023/05/21 06:11:50;;;;;;;20.93;18.83;;;23.30;42.50;;;;;;4992539;28;20405;-53
2023/05/21 06:14:16;;;;;;;22.47;20.33;;;23.50;42.60;;;;;;4992371;28;20497;-53
2023/05/21 06:16:41;;;;;;;22.33;20.03;;;23.60;42.10;;;;;;4992356;28;20456;-51
2023/05/21 06:19:07;;;;;;;20.33;18.33;;;23.80;41.60;;;;;;4992428;28;20178;-53
2023/05/21 06:21:33;;;;;;;24.73;19.10;;;23.90;41.50;;;;;;4992515;28;20238;-53
2023/05/21 06:23:59;;;;;;;20.03;17.90;;;24.00;41.50;;;;;;4992416;28;20553;-51
2023/05/21 06:26:25;;;;;;;19.87;17.20;;;24.10;40.70;;;;;;4992185;28;20194;-53
2023/05/21 06:28:51;;;;;;;20.20;18.13;;;24.20;41.20;;;;;;4994692;28;20186;-52
2023/05/21 06:31:16;;;;;;;20.80;18.57;;;24.30;41.20;;;;;;4996113;28;20406;-51
2023/05/21 06:33:42;;;;;;;24.10;19.23;;;24.40;40.70;;;;;;4996124;28;20406;-53
2023/05/21 06:36:08;;;;;;;19.03;17.07;;;24.40;40.00;;;;;;4995981;28;20486;-53
2023/05/21 06:38:34;;;;;;;20.30;18.20;;;24.50;39.90;;;;;;4995949;28;20175;-51
2023/05/21 06:41:02;;;;;;;21.77;17.93;;;24.40;40.00;;;;;;4995996;28;20171;-53
2023/05/21 06:43:28;;;;;;;19.70;17.70;;;24.40;40.40;;;;;;4996208;28;20307;-51
2023/05/21 06:45:54;;;;;;;21.73;19.60;;;24.40;40.60;;;;;;4995625;28;20513;-52
2023/05/21 06:48:20;;;;;;;19.20;17.20;;;24.40;40.60;;;;;;4995827;28;20916;-54
2023/05/21 06:50:45;;;;;;;18.47;16.50;;;24.50;40.80;;;;;;4995432;28;20203;-53
2023/05/21 06:53:15;;;;;;;19.30;17.20;;;24.60;41.10;;;;;;4995703;28;20229;-52
2023/05/21 06:55:43;;;;;;;21.03;18.87;;;24.70;41.10;;;;;;4995643;28;20180;-52
2023/05/21 06:58:10;;;;;;;19.90;17.80;;;24.80;40.70;;;;;;4995650;28;20421;-52
2023/05/21 07:00:36;;;;;;;19.03;17.23;;;24.80;40.60;;;;;;4995598;28;20517;-54
2023/05/21 07:03:02;;;;;;;19.33;17.37;;;25.00;41.00;;;;;;4995500;28;20493;-51
2023/05/21 07:05:27;;;;;;;19.37;17.40;;;25.00;40.60;;;;;;4995383;28;20454;-54
2023/05/21 07:07:53;;;;;;;19.63;17.67;;;25.10;40.70;;;;;;4995432;28;20242;-52
2023/05/21 07:10:19;;;;;;;20.10;18.07;;;25.20;40.40;;;;;;4994967;28;20202;-51
2023/05/21 07:12:45;;;;;;;20.10;18.20;;;25.20;40.00;;;;;;4995285;28;20909;-54
2023/05/21 07:15:11;;;;;;;18.93;17.00;;;25.30;40.00;;;;;;4995048;28;20195;-51
2023/05/21 07:17:36;;;;;;;18.57;16.90;;;25.30;40.00;;;;;;4995420;28;20172;-52
2023/05/21 07:20:09;;;;;;;19.60;17.17;;;25.40;40.30;;;;;;4995385;28;20191;-54
2023/05/21 07:22:37;;;;;;;20.57;18.47;;;25.40;40.00;;;;;;4995274;28;20406;-52
2023/05/21 07:25:04;;;;;;;20.07;17.77;;;25.50;40.10;;;;;;4995363;28;20517;-54
2023/05/21 07:27:30;;;;;;;20.87;18.83;;;25.50;40.40;;;;;;4995063;28;20493;-54
2023/05/21 07:29:56;;;;;;;20.80;18.60;;;25.60;40.30;;;;;;4995023;28;20465;-52
2023/05/21 07:32:22;;;;;;;17.60;15.80;;;25.60;40.00;;;;;;4995298;28;20485;-54
2023/05/21 07:34:47;;;;;;;18.70;16.80;;;25.70;40.20;;;;;;4994978;28;20226;-52
2023/05/21 07:37:13;;;;;;;19.37;17.27;;;25.80;39.60;;;;;;4995142;28;20205;-51
2023/05/21 07:39:39;;;;;;;19.60;17.73;;;25.80;39.30;;;;;;4994406;28;20784;-54
2023/05/21 07:42:05;;;;;;;17.30;15.60;;;25.90;39.20;;;;;;4994952;28;20179;-52
2023/05/21 07:44:31;;;;;;;19.03;16.87;;;25.90;38.50;;;;;;4994930;28;20437;-52
2023/05/21 07:46:57;;;;;;;18.20;16.40;;;26.00;39.20;;;;;;4994925;28;20171;-54
2023/05/21 07:49:32;;;;;;;18.87;17.07;;;26.10;39.40;;;;;;4994517;28;20206;-54
2023/05/21 07:51:57;;;;;;;19.30;17.33;;;26.20;39.50;;;;;;4994713;28;20529;-52
2023/05/21 07:54:23;;;;;;;23.97;17.60;;;26.40;39.70;;;;;;4994511;28;20498;-52
2023/05/21 07:56:49;;;;;;;20.17;17.90;;;26.50;38.90;;;;;;4994433;28;20526;-51
2023/05/21 07:59:16;;;;;;;18.77;16.97;;;26.60;38.40;;;;;;4994273;28;20179;-54
2023/05/21 08:01:42;;;;;;;18.77;16.80;;;26.80;38.60;;;;;;4994763;28;20178;-53
2023/05/21 08:04:08;;;;;;;18.13;16.33;;;27.00;38.90;;;;;;4994265;28;20406;-53
2023/05/21 08:06:36;;;;;;;17.50;16.00;;;27.10;39.20;;;;;;4994366;28;20406;-53
2023/05/21 08:09:02;;;;;;;19.40;16.03;;;27.30;37.70;;;;;;4994402;28;20485;-54
2023/05/21 08:11:28;;;;;;;19.47;17.30;;;27.40;37.20;;;;;;4994435;28;20860;-54
2023/05/21 08:13:55;;;;;;;17.33;15.60;;;27.40;37.90;;;;;;4994064;28;20445;-54
2023/05/21 08:16:22;;;;;;;18.73;16.50;;;27.40;37.80;;;;;;4994182;28;20815;-54
2023/05/21 08:18:48;;;;;;;17.27;15.63;;;27.50;38.10;;;;;;4976634;28;20418;-53
2023/05/21 08:21:15;;;;;;;17.57;15.97;;;27.60;37.80;;;;;;4994159;28;20414;-54
2023/05/21 08:23:41;;;;;;;19.67;17.60;;;27.70;37.80;;;;;;4993835;28;20407;-52
2023/05/21 08:26:07;;;;;;;17.40;15.83;;;27.90;37.30;;;;;;4993800;28;20454;-53
2023/05/21 08:28:34;;;;;;;19.30;17.20;;;27.90;36.50;;;;;;4993900;28;20457;-54
2023/05/21 08:31:00;;;;;;;18.50;16.90;;;28.00;36.40;;;;;;4993939;28;20211;-54
2023/05/21 08:33:26;;;;;;;18.13;15.93;;;28.10;36.60;;;;;;4994074;28;20430;-54
2023/05/21 08:35:52;;;;;;;17.90;16.23;;;28.10;35.80;;;;;;4993693;28;20767;-54
2023/05/21 08:38:18;;;;;;;17.20;15.50;;;28.00;36.10;;;;;;4993700;28;20403;-53
2023/05/21 08:40:48;;;;;;;20.00;17.73;;;28.00;36.70;;;;;;4993480;28;20402;-54
2023/05/21 08:43:15;;;;;;;16.50;14.80;;;28.10;36.30;;;;;;4993693;28;20410;-54
2023/05/21 08:45:44;;;;;;;17.43;15.43;;;28.10;35.90;;;;;;4993524;28;20521;-54
2023/05/21 08:48:13;;;;;;;18.60;16.67;;;28.10;35.20;;;;;;4993580;28;20405;-54
2023/05/21 08:50:40;;;;;;;15.70;14.20;;;28.10;35.70;;;;;;4992459;28;20593;-54
2023/05/21 08:53:06;;;;;;;15.93;14.53;;;28.10;35.40;;;;;;4993367;28;20417;-53
2023/05/21 08:55:33;;;;;;;15.47;14.03;;;28.10;35.60;;;;;;4975852;28;20995;-54
2023/05/21 08:58:00;;;;;;;18.40;16.40;;;28.20;35.10;;;;;;4993511;28;20448;-53
2023/05/21 09:00:25;;;;;;;17.77;16.07;;;28.20;35.00;;;;;;4975770;28;20425;-54
2023/05/21 09:02:53;;;;;;;16.70;15.07;;;28.20;35.60;;;;;;4993294;28;20406;-54
2023/05/21 09:05:19;;;;;;;19.33;15.83;;;28.30;35.10;;;;;;4992878;28;20214;-52
2023/05/21 09:07:45;;;;;;;15.97;14.37;;;28.30;35.20;;;;;;4993177;28;20933;-54
2023/05/21 09:10:17;;;;;;;15.27;13.87;;;28.50;34.80;;;;;;4993139;28;20562;-52
2023/05/21 09:12:43;;;;;;;18.03;15.83;;;28.50;34.40;;;;;;4993142;28;20195;-54
2023/05/21 09:15:09;;;;;;;19.20;16.07;;;28.60;34.40;;;;;;4992893;28;20801;-54
2023/05/21 09:17:35;;;;;;;17.10;15.43;;;28.60;33.80;;;;;;4993026;28;20419;-54
2023/05/21 09:20:15;;;;;;;16.67;14.80;;;28.70;34.50;;;;;;4992726;28;20928;-54
2023/05/21 09:22:45;;;;;;;16.10;14.50;;;28.80;34.10;;;;;;4993089;28;20442;-54
2023/05/21 09:25:16;;;;;;;19.93;15.83;;;28.90;35.20;;;;;;4992822;28;20494;-54
2023/05/21 09:27:42;;;;;;;16.77;15.00;;;29.10;35.00;;;;;;4990522;28;20815;-54
2023/05/21 09:30:10;;;;;;;15.77;14.27;;;29.30;33.50;;;;;;4991415;28;20458;-54
2023/05/21 09:32:37;;;;;;;15.93;14.27;;;29.40;33.80;;;;;;4992336;28;20419;-54
2023/05/21 09:35:13;;;;;;;16.60;15.10;;;29.50;34.80;;;;;;4992354;28;20426;-54
2023/05/21 09:37:43;;;;;;;15.53;14.07;;;29.70;33.90;;;;;;4992605;28;20403;-54
2023/05/21 09:40:30;;;;;;;15.47;14.17;;;29.80;33.30;;;;;;4992421;28;20439;-54
2023/05/21 09:42:55;;;;;;;19.27;14.23;;;29.90;32.70;;;;;;4974827;28;20415;-54
2023/05/21 09:45:26;;;;;;;15.50;14.00;;;30.00;33.30;;;;;;4992572;28;20438;-54
2023/05/21 09:47:54;;;;;;;16.83;14.80;;;30.10;33.30;;;;;;4992698;28;20182;-53
2023/05/21 09:50:23;;;;;;;16.00;14.40;;;30.20;32.60;;;;;;4992451;28;20895;-54
2023/05/21 09:52:51;;;;;;;16.37;14.70;;;30.20;31.80;;;;;;4992490;28;20422;-54
2023/05/21 09:55:18;;;;;;;15.30;13.90;;;30.20;33.00;;;;;;4992493;28;20435;-54
2023/05/21 09:57:45;;;;;;;14.60;13.10;;;30.40;32.40;;;;;;4992724;28;20804;-54
2023/05/21 10:00:22;;;;;;;15.70;14.10;;;30.40;31.70;;;;;;4992362;28;20406;-54
2023/05/21 10:02:53;;;;;;;14.13;12.93;;;30.50;31.60;;;;;;4995088;28;20417;-54
2023/05/21 10:05:19;;;;;;;14.63;13.13;;;30.50;30.90;;;;;;4996516;28;20454;-54
2023/05/21 10:07:52;;;;;;;13.97;12.40;;;30.60;31.30;;;;;;4996427;28;20426;-54
2023/05/21 10:10:22;;;;;;;15.07;13.63;;;30.60;31.70;;;;;;4996215;28;20462;-54
2023/05/21 10:13:01;;;;;;;15.57;14.17;;;30.70;31.80;;;;;;4996352;28;20403;-54
2023/05/21 10:15:31;;;;;;;14.03;12.50;;;30.80;30.50;;;;;;4996425;28;20800;-54
2023/05/21 10:17:58;;;;;;;15.70;14.07;;;30.90;30.60;;;;;;4996488;28;20492;-54
2023/05/21 10:20:24;;;;;;;15.13;13.57;;;30.80;30.50;;;;;;4996034;28;20569;-54
2023/05/21 10:22:51;;;;;;;14.43;13.03;;;30.80;30.60;;;;;;4996173;28;20773;-52
2023/05/21 10:25:19;;;;;;;14.13;12.80;;;30.70;29.80;;;;;;4996125;28;20433;-55
2023/05/21 10:27:45;;;;;;;16.60;14.97;;;30.70;28.70;;;;;;4996089;28;20424;-52
2023/05/21 10:30:11;;;;;;;14.97;13.57;;;30.70;29.40;;;;;;4995864;28;20454;-52
2023/05/21 10:32:39;;;;;;;17.30;15.07;;;30.70;30.30;;;;;;4996105;28;20401;-55
2023/05/21 10:35:07;;;;;;;18.30;16.60;;;30.80;30.10;;;;;;4996142;28;20510;-53
2023/05/21 10:37:34;;;;;;;19.33;17.53;;;30.90;31.90;;;;;;4996025;28;20407;-53
2023/05/21 10:40:00;;;;;;;20.20;18.20;;;31.00;33.40;;;;;;4995859;28;20457;-55
2023/05/21 10:42:28;;;;;;;19.00;17.20;;;31.00;33.90;;;;;;4995882;28;20409;-53
2023/05/21 10:45:16;;;;;;;19.07;16.77;;;31.00;33.90;;;;;;4995770;28;20434;-53
2023/05/21 10:48:15;;;;;;;14.63;12.97;;;31.00;33.80;;;;;;4995744;28;20418;-53
2023/05/21 10:51:03;;;;;;;15.03;13.63;;;30.80;31.90;;;;;;4995551;28;20456;-53
2023/05/21 10:53:40;;;;;;;13.90;12.60;;;30.50;31.40;;;;;;4995813;28;20812;-54
2023/05/21 10:56:36;;;;;;;13.60;12.13;;;30.30;31.90;;;;;;4995823;28;20513;-53
2023/05/21 10:59:02;;;;;;;14.70;11.80;;;30.10;30.40;;;;;;4995913;28;20378;-55
2023/05/21 11:01:32;;;;;;;13.57;12.13;;;29.90;31.00;;;;;;4995483;28;21017;-53
2023/05/21 11:03:58;;;;;;;11.03;10.10;;;30.00;32.20;;;;;;4995503;28;20469;-53
2023/05/21 11:06:25;;;;;;;10.10;9.20;;;30.20;32.00;;;;;;4995317;28;21239;-55
2023/05/21 11:08:54;;;;;;;11.97;10.87;;;30.30;30.80;;;;;;4995692;28;20437;-55
2023/05/21 11:11:43;;;;;;;10.83;9.67;;;30.50;30.70;;;;;;4995051;28;20454;-52
2023/05/21 11:14:30;;;;;;;9.13;8.43;;;30.80;29.50;;;;;;4994607;28;20902;-53
2023/05/21 11:16:57;;;;;;;9.13;8.33;;;31.00;29.70;;;;;;4995539;28;20765;-56
2023/05/21 11:19:33;;;;;;;10.50;9.00;;;31.30;29.70;;;;;;4995187;28;20504;-53
2023/05/21 11:21:59;;;;;;;9.07;8.20;;;31.50;29.50;;;;;;4995312;28;20533;-55
2023/05/21 11:24:27;;;;;;;9.00;8.10;;;31.60;28.10;;;;;;4995080;28;20501;-53
2023/05/21 11:26:57;;;;;;;9.73;8.80;;;31.70;26.70;;;;;;4995356;28;20179;-52
2023/05/21 11:29:39;;;;;;;9.87;8.43;;;31.70;26.90;;;;;;4995077;28;20500;-55
2023/05/21 11:32:07;;;;;;;9.90;8.90;;;31.90;26.30;;;;;;4995256;28;20456;-53
2023/05/21 11:34:38;;;;;;;11.47;9.70;;;31.90;26.00;;;;;;4995165;28;20426;-53
2023/05/21 11:37:16;;;;;;;10.03;9.13;;;32.00;27.60;;;;;;4994919;28;20476;-55
2023/05/21 11:39:46;;;;;;;11.83;10.63;;;32.20;25.60;;;;;;4994578;28;20418;-56
2023/05/21 11:42:12;;;;;;;10.90;9.80;;;32.20;26.40;;;;;;4994976;28;20406;-56
2023/05/21 11:44:42;;;;;;;10.43;9.50;;;32.30;27.00;;;;;;4994723;28;20426;-53
2023/05/21 11:47:10;;;;;;;10.00;9.10;;;32.40;27.00;;;;;;4994632;28;20410;-55
2023/05/21 11:49:36;;;;;;;10.53;8.27;;;32.50;26.20;;;;;;4994397;28;20540;-55
2023/05/21 11:52:06;;;;;;;11.33;10.33;;;32.50;26.50;;;;;;4994646;28;20412;-53
2023/05/21 11:54:37;;;;;;;22.10;10.60;;;32.60;25.90;;;;;;4994632;28;20434;-55
2023/05/21 11:57:06;;;;;;;10.17;9.27;;;32.60;25.50;;;;;;4994481;28;20418;-55
2023/05/21 11:59:33;;;;;;;10.97;9.87;;;32.60;24.60;;;;;;4994489;28;20410;-55
2023/05/21 12:02:00;;;;;;;10.77;9.83;;;32.60;25.10;;;;;;4994406;28;20417;-55
2023/05/21 12:04:37;;;;;;;12.37;11.30;;;32.60;25.20;;;;;;4994364;28;20788;-55
2023/05/21 12:07:06;;;;;;;11.70;10.50;;;32.60;26.20;;;;;;4994279;28;20422;-55
2023/05/21 12:09:44;;;;;;;11.17;10.03;;;32.60;25.90;;;;;;4993875;28;20458;-54
2023/05/21 12:12:14;;;;;;;13.00;11.80;;;32.50;26.00;;;;;;4994564;28;20390;-53
2023/05/21 12:14:47;;;;;;;12.40;11.20;;;32.50;27.20;;;;;;4994230;28;20455;-53
2023/05/21 12:17:15;;;;;;;11.87;10.67;;;32.60;27.20;;;;;;4994345;28;20505;-55
2023/05/21 12:19:42;;;;;;;12.10;10.90;;;32.70;27.50;;;;;;4994047;28;20406;-55
2023/05/21 12:22:08;;;;;;;13.40;12.10;;;32.60;27.30;;;;;;4994304;28;20418;-53
2023/05/21 12:24:35;;;;;;;12.70;11.50;;;32.40;25.90;;;;;;4994015;28;20439;-55
2023/05/21 12:27:08;;;;;;;12.03;10.93;;;32.10;26.90;;;;;;4992954;28;20438;-55
2023/05/21 12:29:35;;;;;;;13.77;12.30;;;31.70;27.00;;;;;;4993543;28;20457;-53
2023/05/21 12:32:02;;;;;;;15.00;12.07;;;31.60;27.20;;;;;;4994173;28;20407;-55